createdAt,value
2018-02-09T00:00:40.612Z,19.99
2018-02-09T00:02:32.393Z,20.02
2018-02-09T00:03:32.345Z,19.99
2018-02-09T00:05:24.166Z,20.02
2018-02-09T00:06:24.100Z,20.00
2018-02-09T00:08:16.043Z,20.00
2018-02-09T00:09:16.038Z,19.96
2018-02-09T00:11:07.991Z,20.04
2018-02-09T00:12:07.752Z,20.07
2018-02-09T00:13:59.564Z,20.07
2018-02-09T00:14:59.518Z,20.04
2018-02-09T00:16:51.332Z,20.08
2018-02-09T00:17:51.458Z,20.00
2018-02-09T00:19:43.067Z,20.00
2018-02-09T00:20:43.268Z,20.04
2018-02-09T00:22:34.833Z,20.09
2018-02-09T00:23:34.770Z,20.12
2018-02-09T00:25:26.582Z,20.14
2018-02-09T00:26:26.514Z,20.11
2018-02-09T00:28:18.334Z,20.12
2018-02-09T00:29:18.286Z,20.11
2018-02-09T00:31:10.103Z,20.26
2018-02-09T00:32:10.037Z,20.14
2018-02-09T00:34:02.098Z,20.11
2018-02-09T00:35:01.785Z,20.15
2018-02-09T00:36:53.603Z,20.14
2018-02-09T00:37:53.539Z,20.11
2018-02-09T00:39:45.335Z,20.12
2018-02-09T00:40:45.286Z,20.15
2018-02-09T00:42:37.104Z,20.14
2018-02-09T00:43:37.273Z,20.07
2018-02-09T00:45:28.834Z,20.11
2018-02-09T00:46:28.787Z,20.17
2018-02-09T00:48:20.603Z,20.15
2018-02-09T00:49:20.543Z,20.18
2018-02-09T00:51:12.353Z,20.17
2018-02-09T00:52:12.303Z,20.25
2018-02-09T00:54:04.117Z,20.19
2018-02-09T00:55:04.055Z,20.27
2018-02-09T00:56:56.111Z,20.25
2018-02-09T00:57:55.810Z,20.19
2018-02-09T00:59:47.647Z,20.23
2018-02-09T01:00:47.611Z,20.22
2018-02-09T01:02:39.378Z,20.22
2018-02-09T01:03:39.330Z,20.22
2018-02-09T01:05:31.145Z,20.23
2018-02-09T01:06:31.283Z,20.22
2018-02-09T01:08:22.935Z,20.27
2018-02-09T01:09:22.829Z,20.23
2018-02-09T01:11:14.628Z,20.19
2018-02-09T01:12:14.583Z,20.23
2018-02-09T01:14:06.429Z,20.17
2018-02-09T01:15:06.348Z,20.25
2018-02-09T01:16:58.152Z,20.26
2018-02-09T01:17:58.096Z,20.25
2018-02-09T01:19:49.908Z,20.29
2018-02-09T01:20:49.842Z,20.27
2018-02-09T01:22:41.660Z,20.25
2018-02-09T01:23:41.607Z,20.25
2018-02-09T01:25:33.419Z,20.23
2018-02-09T01:26:33.355Z,20.22
2018-02-09T01:28:26.643Z,20.19
2018-02-09T01:29:26.608Z,20.11
2018-02-09T01:31:18.415Z,20.18
2018-02-09T01:32:18.606Z,20.11
2018-02-09T01:34:10.153Z,20.15
2018-02-09T01:35:10.106Z,20.11
2018-02-09T01:37:01.921Z,20.17
2018-02-09T01:38:01.853Z,20.12
2018-02-09T01:39:53.667Z,20.09
2018-02-09T01:40:53.618Z,20.11
2018-02-09T01:42:45.445Z,20.11
2018-02-09T01:43:45.606Z,20.12
2018-02-09T01:45:37.177Z,20.09
2018-02-09T01:46:37.130Z,20.04
2018-02-09T01:48:28.948Z,20.02
2018-02-09T01:49:28.882Z,19.97
2018-02-09T01:51:20.697Z,20.04
2018-02-09T01:52:20.634Z,20.02
2018-02-09T01:54:12.434Z,19.97
2018-02-09T01:55:12.383Z,19.97
2018-02-09T01:57:04.455Z,19.99
2018-02-09T01:58:04.137Z,20.02
2018-02-09T01:59:55.954Z,20.05
2018-02-09T02:00:55.903Z,20.00
2018-02-09T02:02:47.723Z,19.92
2018-02-09T02:03:47.656Z,19.92
2018-02-09T02:05:39.452Z,19.97
2018-02-09T02:06:39.624Z,19.93
2018-02-09T02:08:32.211Z,19.89
2018-02-09T02:09:32.199Z,19.84
2018-02-09T02:11:24.943Z,19.86
2018-02-09T02:12:24.897Z,19.87
2018-02-09T02:14:16.798Z,19.78
2018-02-09T02:15:16.680Z,19.84
2018-02-09T02:17:08.463Z,19.86
2018-02-09T02:18:08.415Z,19.89
2018-02-09T02:20:00.224Z,19.78
2018-02-09T02:21:00.317Z,19.81
2018-02-09T02:22:51.956Z,19.93
2018-02-09T02:23:51.908Z,19.82
2018-02-09T02:25:43.738Z,19.92
2018-02-09T02:26:43.682Z,19.84
2018-02-09T02:28:35.494Z,19.94
2018-02-09T02:29:35.506Z,19.87
2018-02-09T02:31:27.471Z,19.96
2018-02-09T02:32:27.174Z,19.93
2018-02-09T02:34:19.005Z,20.02
2018-02-09T02:35:18.938Z,19.94
2018-02-09T02:37:10.748Z,19.92
2018-02-09T02:38:10.786Z,20.00
2018-02-09T02:40:02.496Z,19.90
2018-02-09T02:41:02.435Z,19.96
2018-02-09T02:42:54.240Z,20.05
2018-02-09T02:43:54.342Z,20.07
2018-02-09T02:45:46.024Z,20.05
2018-02-09T02:46:45.942Z,19.99
2018-02-09T02:48:37.740Z,20.04
2018-02-09T02:49:37.800Z,20.05
2018-02-09T02:51:29.505Z,20.05
2018-02-09T02:52:29.440Z,20.05
2018-02-09T02:54:21.238Z,20.09
2018-02-09T02:55:21.185Z,20.07
2018-02-09T02:57:12.999Z,20.07
2018-02-09T02:58:12.932Z,20.07
2018-02-09T03:00:04.729Z,20.04
2018-02-09T03:01:04.680Z,20.07
2018-02-09T03:02:56.494Z,20.04
2018-02-09T03:03:56.432Z,20.07
2018-02-09T03:05:48.231Z,19.99
2018-02-09T03:06:48.368Z,20.08
2018-02-09T03:08:39.991Z,19.99
2018-02-09T03:09:39.925Z,20.05
2018-02-09T03:11:31.727Z,20.11
2018-02-09T03:12:31.676Z,20.02
2018-02-09T03:14:23.530Z,20.00
2018-02-09T03:15:23.463Z,20.11
2018-02-09T03:17:15.273Z,20.08
2018-02-09T03:18:15.212Z,20.18
2018-02-09T03:20:07.003Z,20.11
2018-02-09T03:21:06.982Z,19.96
2018-02-09T03:22:58.787Z,19.99
2018-02-09T03:23:58.731Z,20.04
2018-02-09T03:25:51.537Z,19.97
2018-02-09T03:26:51.486Z,20.08
2018-02-09T03:28:43.298Z,20.07
2018-02-09T03:29:43.481Z,19.97
2018-02-09T03:31:35.039Z,20.07
2018-02-09T03:32:34.990Z,20.02
2018-02-09T03:34:26.803Z,20.04
2018-02-09T03:35:26.732Z,20.05
2018-02-09T03:37:18.554Z,20.02
2018-02-09T03:38:18.505Z,20.00
2018-02-09T03:40:10.318Z,20.02
2018-02-09T03:41:10.486Z,20.07
2018-02-09T03:43:02.056Z,20.05
2018-02-09T03:44:02.006Z,20.02
2018-02-09T03:45:53.817Z,20.08
2018-02-09T03:46:53.757Z,20.00
2018-02-09T03:48:45.573Z,20.00
2018-02-09T03:49:45.523Z,20.04
2018-02-09T03:51:37.339Z,20.00
2018-02-09T03:52:37.275Z,20.00
2018-02-09T03:54:29.333Z,19.99
2018-02-09T03:55:29.027Z,19.87
2018-02-09T03:57:20.852Z,19.87
2018-02-09T03:58:21.401Z,19.90
2018-02-09T04:00:12.584Z,19.92
2018-02-09T04:01:12.538Z,19.84
2018-02-09T04:03:04.357Z,19.89
2018-02-09T04:04:04.511Z,19.90
2018-02-09T04:05:56.094Z,19.81
2018-02-09T04:06:56.048Z,19.89
2018-02-09T04:08:47.857Z,19.86
2018-02-09T04:09:47.847Z,19.87
2018-02-09T04:11:39.607Z,19.72
2018-02-09T04:12:39.535Z,19.70
2018-02-09T04:14:31.333Z,19.75
2018-02-09T04:15:31.286Z,19.70
2018-02-09T04:17:23.097Z,19.77
2018-02-09T04:18:23.035Z,19.74
2018-02-09T04:20:14.868Z,19.74
2018-02-09T04:21:14.823Z,19.59
2018-02-09T04:23:06.627Z,19.77
2018-02-09T04:24:06.564Z,19.70
2018-02-09T04:25:58.390Z,19.68
2018-02-09T04:26:58.342Z,19.72
2018-02-09T04:28:50.367Z,19.68
2018-02-09T04:29:50.131Z,19.74
2018-02-09T04:31:41.887Z,19.68
2018-02-09T04:32:41.836Z,19.70
2018-02-09T04:34:33.646Z,19.74
2018-02-09T04:35:33.584Z,19.70
2018-02-09T04:37:25.653Z,19.77
2018-02-09T04:38:25.335Z,19.72
2018-02-09T04:40:17.169Z,19.72
2018-02-09T04:41:17.105Z,19.70
2018-02-09T04:43:08.907Z,19.78
2018-02-09T04:44:08.857Z,19.77
2018-02-09T04:46:01.671Z,19.79
2018-02-09T04:47:01.837Z,19.79
2018-02-09T04:48:53.415Z,19.86
2018-02-09T04:49:53.358Z,19.89
2018-02-09T04:51:45.184Z,19.89
2018-02-09T04:52:45.108Z,19.86
2018-02-09T04:54:36.902Z,20.02
2018-02-09T04:55:36.855Z,20.05
2018-02-09T04:57:29.263Z,20.05
2018-02-09T04:58:28.810Z,20.08
2018-02-09T05:00:20.877Z,20.15
2018-02-09T05:01:20.552Z,20.23
2018-02-09T05:03:12.367Z,20.18
2018-02-09T05:04:12.305Z,20.25
2018-02-09T05:06:04.111Z,20.30
2018-02-09T05:07:04.059Z,20.29
2018-02-09T05:08:56.871Z,20.33
2018-02-09T05:09:57.044Z,20.37
2018-02-09T05:11:48.605Z,20.39
2018-02-09T05:12:48.555Z,20.39
2018-02-09T05:14:40.364Z,20.42
2018-02-09T05:15:40.300Z,20.42
2018-02-09T05:17:32.117Z,20.39
2018-02-09T05:18:32.068Z,20.46
2018-02-09T05:20:23.888Z,20.53
2018-02-09T05:21:23.826Z,20.58
2018-02-09T05:22:23.783Z,20.53
2018-02-09T05:23:23.971Z,20.61
2018-02-09T05:24:23.701Z,20.63
2018-02-09T05:25:23.660Z,20.55
2018-02-09T05:26:24.706Z,20.52
2018-02-09T05:27:23.576Z,20.61
2018-02-09T05:28:23.536Z,20.52
2018-02-09T05:29:23.504Z,20.60
2018-02-09T05:30:23.453Z,20.63
2018-02-09T05:31:23.412Z,20.55
2018-02-09T05:32:23.567Z,20.49
2018-02-09T05:33:23.328Z,20.60
2018-02-09T05:34:23.289Z,20.63
2018-02-09T05:35:23.333Z,20.53
2018-02-09T05:36:23.211Z,20.58
2018-02-09T05:37:23.164Z,20.58
2018-02-09T05:38:23.124Z,20.60
2018-02-09T05:39:23.099Z,20.63
2018-02-09T05:40:23.042Z,20.55
2018-02-09T05:41:23.162Z,20.65
2018-02-09T05:42:22.959Z,20.60
2018-02-09T05:43:22.916Z,20.67
2018-02-09T05:44:22.984Z,20.64
2018-02-09T05:45:22.832Z,20.70
2018-02-09T05:46:22.794Z,20.67
2018-02-09T05:47:22.750Z,20.71
2018-02-09T05:48:22.710Z,20.64
2018-02-09T05:49:22.670Z,20.61
2018-02-09T05:50:22.868Z,20.61
2018-02-09T05:51:22.583Z,20.58
2018-02-09T05:52:22.546Z,20.63
2018-02-09T05:53:22.506Z,20.64
2018-02-09T05:54:22.464Z,20.64
2018-02-09T05:55:22.423Z,20.58
2018-02-09T05:56:22.386Z,20.55
2018-02-09T05:57:22.340Z,20.70
2018-02-09T05:58:22.299Z,20.61
2018-02-09T05:59:22.489Z,20.73
2018-02-09T06:00:22.219Z,20.64
2018-02-09T06:01:22.178Z,20.65
2018-02-09T06:02:22.135Z,20.71
2018-02-09T06:03:22.093Z,20.70
2018-02-09T06:04:22.058Z,20.75
2018-02-09T06:05:22.016Z,20.64
2018-02-09T06:06:21.969Z,20.73
2018-02-09T06:07:21.930Z,20.71
2018-02-09T06:08:21.929Z,20.77
2018-02-09T06:09:21.921Z,20.79
2018-02-09T06:10:21.809Z,20.85
2018-02-09T06:11:21.765Z,20.82
2018-02-09T06:12:21.725Z,20.88
2018-02-09T06:13:21.682Z,20.88
2018-02-09T06:14:21.676Z,20.82
2018-02-09T06:15:21.600Z,20.82
2018-02-09T06:16:21.559Z,20.83
2018-02-09T06:17:21.519Z,20.85
2018-02-09T06:18:21.477Z,20.88
2018-02-09T06:19:21.436Z,20.89
2018-02-09T06:20:21.397Z,20.83
2018-02-09T06:21:21.352Z,20.93
2018-02-09T06:22:21.314Z,20.93
2018-02-09T06:23:21.273Z,20.89
2018-02-09T06:24:21.232Z,20.88
2018-02-09T06:25:21.198Z,20.92
2018-02-09T06:26:42.389Z,20.86
2018-02-09T06:27:21.116Z,20.88
2018-02-09T06:28:21.069Z,20.85
2018-02-09T06:29:21.027Z,20.97
2018-02-09T06:30:20.987Z,21.01
2018-02-09T06:31:20.951Z,20.98
2018-02-09T06:32:20.911Z,21.07
2018-02-09T06:33:20.877Z,21.01
2018-02-09T06:34:20.821Z,20.98
2018-02-09T06:35:20.792Z,21.03
2018-02-09T06:36:20.742Z,21.18
2018-02-09T06:37:20.704Z,21.11
2018-02-09T06:38:20.693Z,21.08
2018-02-09T06:39:20.618Z,21.10
2018-02-09T06:40:20.584Z,21.13
2018-02-09T06:41:20.542Z,21.11
2018-02-09T06:42:20.500Z,21.08
2018-02-09T06:43:20.456Z,21.11
2018-02-09T06:44:20.413Z,21.14
2018-02-09T06:45:20.381Z,21.10
2018-02-09T06:46:20.332Z,21.08
2018-02-09T06:47:20.320Z,21.14
2018-02-09T06:48:20.251Z,21.29
2018-02-09T06:49:20.206Z,21.25
2018-02-09T06:50:20.171Z,21.29
2018-02-09T06:51:20.129Z,21.38
2018-02-09T06:52:20.085Z,21.43
2018-02-09T06:53:20.046Z,21.40
2018-02-09T06:54:20.009Z,21.41
2018-02-09T06:55:19.965Z,21.56
2018-02-09T06:56:19.924Z,21.56
2018-02-09T06:57:19.882Z,21.59
2018-02-09T06:58:19.846Z,21.63
2018-02-09T06:59:19.904Z,21.59
2018-02-09T07:00:19.762Z,21.51
2018-02-09T07:01:19.719Z,21.58
2018-02-09T07:02:19.684Z,21.51
2018-02-09T07:03:19.638Z,21.56
2018-02-09T07:04:19.599Z,21.55
2018-02-09T07:05:19.559Z,21.51
2018-02-09T07:06:19.718Z,21.55
2018-02-09T07:07:19.487Z,21.53
2018-02-09T07:08:19.435Z,21.56
2018-02-09T07:09:19.395Z,21.53
2018-02-09T07:10:19.356Z,21.51
2018-02-09T07:11:19.318Z,21.51
2018-02-09T07:12:19.274Z,21.44
2018-02-09T07:13:19.238Z,21.53
2018-02-09T07:14:19.192Z,21.48
2018-02-09T07:15:19.165Z,21.56
2018-02-09T07:16:19.106Z,21.53
2018-02-09T07:17:19.069Z,21.44
2018-02-09T07:18:19.035Z,21.51
2018-02-09T07:19:18.996Z,21.44
2018-02-09T07:20:18.952Z,21.51
2018-02-09T07:21:18.908Z,21.53
2018-02-09T07:22:18.936Z,21.51
2018-02-09T07:23:18.833Z,21.60
2018-02-09T07:24:18.794Z,21.55
2018-02-09T07:25:18.746Z,21.59
2018-02-09T07:26:18.706Z,21.55
2018-02-09T07:27:18.819Z,21.60
2018-02-09T07:28:18.625Z,21.67
2018-02-09T07:29:18.591Z,21.63
2018-02-09T07:30:18.542Z,21.63
2018-02-09T07:31:18.510Z,21.53
2018-02-09T07:32:18.468Z,21.73
2018-02-09T07:33:18.420Z,21.67
2018-02-09T07:34:18.382Z,21.69
2018-02-09T07:35:18.346Z,21.67
2018-02-09T07:36:18.306Z,21.74
2018-02-09T07:37:18.265Z,21.69
2018-02-09T07:38:18.219Z,21.71
2018-02-09T07:39:18.178Z,21.66
2018-02-09T07:40:18.147Z,21.69
2018-02-09T07:41:18.102Z,21.66
2018-02-09T07:42:18.058Z,21.74
2018-02-09T07:43:18.021Z,21.75
2018-02-09T07:44:17.976Z,21.75
2018-02-09T07:45:17.934Z,21.78
2018-02-09T07:46:17.895Z,21.74
2018-02-09T07:47:17.872Z,21.82
2018-02-09T07:48:17.819Z,21.77
2018-02-09T07:49:17.779Z,21.77
2018-02-09T07:50:18.460Z,21.78
2018-02-09T07:51:17.692Z,21.82
2018-02-09T07:52:17.654Z,21.98
2018-02-09T07:53:17.618Z,21.88
2018-02-09T07:54:17.575Z,21.96
2018-02-09T07:55:17.526Z,21.91
2018-02-09T07:56:17.490Z,22.01
2018-02-09T07:57:17.454Z,21.90
2018-02-09T07:58:17.408Z,21.97
2018-02-09T07:59:17.370Z,22.07
2018-02-09T08:00:17.335Z,22.00
2018-02-09T08:01:17.294Z,22.00
2018-02-09T08:02:17.247Z,22.00
2018-02-09T08:03:17.209Z,21.97
2018-02-09T08:04:17.174Z,22.03
2018-02-09T08:05:17.133Z,22.03
2018-02-09T08:06:17.098Z,22.00
2018-02-09T08:07:17.050Z,22.13
2018-02-09T08:08:17.009Z,22.04
2018-02-09T08:09:16.959Z,22.09
2018-02-09T08:10:17.139Z,22.04
2018-02-09T08:11:16.894Z,22.04
2018-02-09T08:12:16.850Z,22.13
2018-02-09T08:13:16.818Z,22.16
2018-02-09T08:14:16.799Z,22.12
2018-02-09T08:15:16.730Z,22.18
2018-02-09T08:16:16.689Z,22.19
2018-02-09T08:17:16.677Z,22.16
2018-02-09T08:18:16.610Z,22.19
2018-02-09T08:19:16.571Z,22.22
2018-02-09T08:20:16.533Z,22.25
2018-02-09T08:21:16.487Z,22.25
2018-02-09T08:22:16.450Z,22.23
2018-02-09T08:23:16.410Z,22.28
2018-02-09T08:24:16.369Z,22.27
2018-02-09T08:25:16.327Z,22.21
2018-02-09T08:26:16.311Z,22.38
2018-02-09T08:27:16.247Z,22.36
2018-02-09T08:28:16.210Z,22.30
2018-02-09T08:29:16.946Z,22.37
2018-02-09T08:30:16.126Z,22.43
2018-02-09T08:31:16.080Z,22.49
2018-02-09T08:32:16.048Z,22.52
2018-02-09T08:33:16.013Z,22.44
2018-02-09T08:34:15.966Z,22.51
2018-02-09T08:35:15.925Z,22.61
2018-02-09T08:36:15.888Z,22.61
2018-02-09T08:37:15.846Z,22.52
2018-02-09T08:38:15.806Z,22.59
2018-02-09T08:39:15.765Z,22.67
2018-02-09T08:40:15.725Z,22.62
2018-02-09T08:41:15.695Z,22.62
2018-02-09T08:42:15.647Z,22.68
2018-02-09T08:43:15.617Z,22.52
2018-02-09T08:44:15.561Z,22.53
2018-02-09T08:45:15.519Z,22.49
2018-02-09T08:46:15.480Z,22.56
2018-02-09T08:47:15.436Z,22.59
2018-02-09T08:48:15.400Z,22.66
2018-02-09T08:49:15.377Z,22.61
2018-02-09T08:50:15.326Z,22.61
2018-02-09T08:51:15.286Z,22.64
2018-02-09T08:52:15.254Z,22.55
2018-02-09T08:53:15.205Z,22.64
2018-02-09T08:54:15.168Z,22.53
2018-02-09T08:55:15.124Z,22.68
2018-02-09T08:56:15.088Z,22.56
2018-02-09T08:57:15.076Z,22.59
2018-02-09T08:58:15.047Z,22.59
2018-02-09T08:59:15.458Z,22.67
2018-02-09T09:00:14.931Z,22.59
2018-02-09T09:01:14.896Z,22.68
2018-02-09T09:02:14.860Z,22.59
2018-02-09T09:03:15.473Z,22.58
2018-02-09T09:04:14.761Z,22.67
2018-02-09T09:05:14.744Z,22.64
2018-02-09T09:06:14.688Z,22.58
2018-02-09T09:07:14.747Z,22.62
2018-02-09T09:08:14.609Z,22.61
2018-02-09T09:09:14.565Z,22.59
2018-02-09T09:10:14.539Z,22.51
2018-02-09T09:11:14.681Z,22.64
2018-02-09T09:12:14.458Z,22.68
2018-02-09T09:13:14.435Z,22.59
2018-02-09T09:14:14.372Z,22.59
2018-02-09T09:15:14.338Z,22.61
2018-02-09T09:16:14.310Z,22.66
2018-02-09T09:17:14.271Z,22.56
2018-02-09T09:18:14.212Z,22.66
2018-02-09T09:19:14.183Z,22.68
2018-02-09T09:20:14.123Z,22.67
2018-02-09T09:22:14.074Z,22.71
2018-02-09T09:23:14.032Z,22.70
2018-02-09T09:24:13.987Z,22.74
2018-02-09T09:25:13.948Z,22.80
2018-02-09T09:26:13.904Z,22.81
2018-02-09T09:27:13.883Z,22.80
2018-02-09T09:28:34.821Z,22.89
2018-02-09T09:29:49.625Z,22.77
2018-02-09T09:30:13.748Z,22.93
2018-02-09T09:31:13.716Z,22.89
2018-02-09T09:32:13.681Z,22.83
2018-02-09T09:33:34.628Z,22.86
2018-02-09T09:34:13.596Z,22.89
2018-02-09T09:35:13.558Z,22.93
2018-02-09T09:36:13.519Z,22.96
2018-02-09T09:37:13.474Z,22.86
2018-02-09T09:38:13.442Z,23.03
2018-02-09T09:39:34.389Z,22.92
2018-02-09T09:40:13.555Z,23.01
2018-02-09T09:41:13.306Z,22.98
2018-02-09T09:42:13.273Z,23.08
2018-02-09T09:43:13.231Z,22.95
2018-02-09T09:44:13.198Z,22.96
2018-02-09T09:45:34.154Z,23.06
2018-02-09T09:46:13.113Z,22.96
2018-02-09T09:47:13.081Z,23.04
2018-02-09T09:48:13.042Z,23.06
2018-02-09T09:49:12.991Z,23.04
2018-02-09T09:50:12.952Z,22.91
2018-02-09T09:51:33.917Z,23.04
2018-02-09T09:52:12.881Z,22.99
2018-02-09T09:53:12.837Z,23.11
2018-02-09T09:54:12.797Z,23.03
2018-02-09T09:55:12.769Z,23.03
2018-02-09T09:56:12.718Z,23.10
2018-02-09T09:57:33.666Z,22.96
2018-02-09T09:58:12.710Z,23.11
2018-02-09T09:59:12.634Z,23.08
2018-02-09T10:00:12.558Z,23.04
2018-02-09T10:01:12.520Z,23.06
2018-02-09T10:02:12.489Z,23.06
2018-02-09T10:03:33.437Z,23.13
2018-02-09T10:04:12.411Z,23.10
2018-02-09T10:05:12.361Z,23.07
2018-02-09T10:06:12.335Z,22.98
2018-02-09T10:07:12.322Z,22.96
2018-02-09T10:08:12.293Z,22.99
2018-02-09T10:09:33.286Z,22.95
2018-02-09T10:10:12.166Z,22.93
2018-02-09T10:11:12.124Z,22.91
2018-02-09T10:12:12.092Z,23.01
2018-02-09T10:13:12.053Z,22.95
2018-02-09T10:14:12.011Z,23.04
2018-02-09T10:15:32.966Z,23.04
2018-02-09T10:16:11.929Z,23.04
2018-02-09T10:17:11.885Z,23.01
2018-02-09T10:18:12.014Z,23.06
2018-02-09T10:19:11.837Z,23.03
2018-02-09T10:20:11.998Z,23.01
2018-02-09T10:21:32.908Z,23.01
2018-02-09T10:22:11.705Z,23.03
2018-02-09T10:23:12.010Z,23.04
2018-02-09T10:24:11.617Z,23.01
2018-02-09T10:25:11.567Z,23.03
2018-02-09T10:26:11.530Z,23.10
2018-02-09T10:27:32.552Z,23.01
2018-02-09T10:28:11.658Z,23.07
2018-02-09T10:29:11.530Z,23.04
2018-02-09T10:30:11.380Z,23.04
2018-02-09T10:31:11.336Z,23.10
2018-02-09T10:32:11.573Z,23.03
2018-02-09T10:33:32.246Z,23.14
2018-02-09T10:34:11.209Z,23.08
2018-02-09T10:35:13.261Z,23.08
2018-02-09T10:36:11.164Z,23.04
2018-02-09T10:37:11.094Z,23.13
2018-02-09T10:38:11.066Z,23.11
2018-02-09T10:39:32.056Z,23.18
2018-02-09T10:40:11.095Z,23.06
2018-02-09T10:41:10.933Z,23.21
2018-02-09T10:42:10.904Z,23.26
2018-02-09T10:43:10.859Z,23.29
2018-02-09T10:44:10.881Z,23.29
2018-02-09T10:45:31.772Z,23.25
2018-02-09T10:46:10.735Z,23.21
2018-02-09T10:47:10.700Z,23.18
2018-02-09T10:48:10.679Z,23.18
2018-02-09T10:49:10.616Z,23.21
2018-02-09T10:50:10.582Z,23.13
2018-02-09T10:51:38.144Z,23.06
2018-02-09T10:52:10.510Z,23.11
2018-02-09T10:53:10.689Z,23.03
2018-02-09T10:54:10.424Z,23.07
2018-02-09T10:55:10.378Z,23.08
2018-02-09T10:56:10.358Z,23.04
2018-02-09T10:57:31.303Z,23.13
2018-02-09T10:58:10.268Z,23.10
2018-02-09T10:59:10.229Z,23.04
2018-02-09T11:00:10.188Z,23.06
2018-02-09T11:01:10.163Z,22.99
2018-02-09T11:02:10.104Z,22.99
2018-02-09T11:03:31.066Z,22.98
2018-02-09T11:04:10.031Z,22.96
2018-02-09T11:05:09.988Z,23.01
2018-02-09T11:06:09.961Z,22.96
2018-02-09T11:07:09.910Z,23.03
2018-02-09T11:08:09.876Z,22.99
2018-02-09T11:09:30.892Z,23.01
2018-02-09T11:10:09.791Z,22.96
2018-02-09T11:11:09.756Z,23.06
2018-02-09T11:12:09.709Z,23.06
2018-02-09T11:13:09.677Z,23.01
2018-02-09T11:14:09.639Z,22.98
2018-02-09T11:15:30.681Z,22.99
2018-02-09T11:16:09.556Z,22.96
2018-02-09T11:17:09.525Z,22.98
2018-02-09T11:18:09.503Z,22.95
2018-02-09T11:19:09.430Z,23.01
2018-02-09T11:20:09.394Z,23.01
2018-02-09T11:21:30.375Z,23.06
2018-02-09T11:22:09.319Z,23.01
2018-02-09T11:23:09.338Z,23.11
2018-02-09T11:24:09.242Z,23.01
2018-02-09T11:26:45.319Z,23.10
2018-02-09T11:27:39.669Z,23.14
2018-02-09T11:29:31.480Z,23.11
2018-02-09T11:30:31.418Z,23.10
2018-02-09T11:32:23.259Z,23.18
2018-02-09T11:33:23.177Z,23.10
2018-02-09T11:35:14.997Z,23.18
2018-02-09T11:36:14.932Z,23.15
2018-02-09T11:38:06.775Z,23.21
2018-02-09T11:39:06.702Z,23.18
2018-02-09T11:40:58.515Z,23.25
2018-02-09T11:41:58.475Z,23.17
2018-02-09T11:43:50.297Z,23.29
2018-02-09T11:44:50.236Z,23.34
2018-02-09T11:45:50.198Z,23.28
2018-02-09T11:46:50.161Z,23.36
2018-02-09T11:47:50.119Z,23.25
2018-02-09T11:48:50.300Z,23.26
2018-02-09T11:49:50.042Z,23.28
2018-02-09T11:50:50.009Z,23.29
2018-02-09T11:51:49.972Z,23.28
2018-02-09T11:52:49.926Z,23.28
2018-02-09T11:53:49.882Z,23.31
2018-02-09T11:54:49.845Z,23.25
2018-02-09T11:55:49.801Z,23.22
2018-02-09T11:56:49.773Z,23.21
2018-02-09T11:57:49.728Z,23.22
2018-02-09T11:58:49.725Z,23.23
2018-02-09T11:59:49.660Z,23.21
2018-02-09T12:00:49.601Z,23.37
2018-02-09T12:01:49.816Z,23.25
2018-02-09T12:02:49.530Z,23.29
2018-02-09T12:03:49.493Z,23.28
2018-02-09T12:04:49.454Z,23.29
2018-02-09T12:05:49.405Z,23.29
2018-02-09T12:06:49.370Z,23.28
2018-02-09T12:07:49.335Z,23.33
2018-02-09T12:08:49.293Z,23.26
2018-02-09T12:09:49.254Z,23.26
2018-02-09T12:10:49.213Z,23.33
2018-02-09T12:11:49.178Z,23.39
2018-02-09T12:12:49.132Z,23.22
2018-02-09T12:13:49.101Z,23.29
2018-02-09T12:14:49.217Z,23.25
2018-02-09T12:15:49.016Z,23.18
2018-02-09T12:16:48.978Z,23.17
2018-02-09T12:17:48.944Z,23.26
2018-02-09T12:18:48.897Z,23.14
2018-02-09T12:19:48.863Z,23.17
2018-02-09T12:20:48.820Z,23.22
2018-02-09T12:21:48.804Z,23.18
2018-02-09T12:22:48.741Z,23.15
2018-02-09T12:23:48.926Z,23.13
2018-02-09T12:24:48.659Z,23.14
2018-02-09T12:25:48.621Z,23.26
2018-02-09T12:26:48.626Z,23.18
2018-02-09T12:27:48.542Z,23.21
2018-02-09T12:28:48.513Z,23.10
2018-02-09T12:29:48.466Z,23.10
2018-02-09T12:31:24.362Z,23.13
2018-02-09T12:31:48.385Z,23.10
2018-02-09T12:32:48.547Z,23.07
2018-02-09T12:33:48.306Z,23.13
2018-02-09T12:34:48.268Z,23.10
2018-02-09T12:35:48.402Z,23.08
2018-02-09T12:36:48.189Z,23.08
2018-02-09T12:37:48.160Z,23.13
2018-02-09T12:38:48.111Z,23.10
2018-02-09T12:39:48.235Z,23.07
2018-02-09T12:40:48.027Z,23.04
2018-02-09T12:41:47.992Z,23.11
2018-02-09T12:42:47.971Z,23.04
2018-02-09T12:43:47.917Z,22.98
2018-02-09T12:44:48.038Z,23.01
2018-02-09T12:45:47.834Z,22.99
2018-02-09T12:46:47.797Z,23.01
2018-02-09T12:47:47.800Z,23.01
2018-02-09T12:48:47.710Z,22.99
2018-02-09T12:49:47.683Z,22.99
2018-02-09T12:50:47.635Z,23.03
2018-02-09T12:51:47.837Z,23.04
2018-02-09T12:52:47.558Z,23.07
2018-02-09T12:53:47.524Z,23.04
2018-02-09T12:54:47.589Z,22.93
2018-02-09T12:55:47.438Z,23.01
2018-02-09T12:56:47.659Z,23.01
2018-02-09T12:57:47.359Z,22.88
2018-02-09T12:58:47.322Z,22.99
2018-02-09T12:59:47.329Z,22.86
2018-02-09T13:00:47.242Z,22.89
2018-02-09T13:01:47.217Z,22.96
2018-02-09T13:02:47.165Z,22.93
2018-02-09T13:03:47.359Z,23.01
2018-02-09T13:04:47.083Z,22.98
2018-02-09T13:05:47.046Z,22.85
2018-02-09T13:06:47.010Z,22.99
2018-02-09T13:07:46.965Z,22.96
2018-02-09T13:08:47.151Z,22.99
2018-02-09T13:09:46.888Z,23.01
2018-02-09T13:10:46.851Z,22.99
2018-02-09T13:11:46.848Z,22.96
2018-02-09T13:12:46.769Z,22.92
2018-02-09T13:13:46.767Z,22.98
2018-02-09T13:14:46.689Z,22.88
2018-02-09T13:15:46.861Z,22.86
2018-02-09T13:16:46.611Z,22.98
2018-02-09T13:17:46.570Z,22.86
2018-02-09T13:18:46.540Z,22.80
2018-02-09T13:19:46.491Z,22.93
2018-02-09T13:20:46.664Z,22.86
2018-02-09T13:21:46.411Z,22.98
2018-02-09T13:22:46.374Z,22.96
2018-02-09T13:23:46.369Z,22.96
2018-02-09T13:24:46.294Z,23.01
2018-02-09T13:25:46.481Z,22.96
2018-02-09T13:26:46.217Z,22.83
2018-02-09T13:27:46.174Z,22.91
2018-02-09T13:28:46.174Z,22.93
2018-02-09T13:29:46.096Z,22.80
2018-02-09T13:30:46.258Z,22.80
2018-02-09T13:31:46.017Z,22.89
2018-02-09T13:32:45.984Z,22.91
2018-02-09T13:33:46.027Z,22.92
2018-02-09T13:34:45.899Z,22.86
2018-02-09T13:35:46.069Z,22.86
2018-02-09T13:36:45.818Z,22.86
2018-02-09T13:37:45.781Z,22.88
2018-02-09T13:38:45.783Z,22.92
2018-02-09T13:39:45.699Z,22.95
2018-02-09T13:40:45.875Z,22.74
2018-02-09T13:41:45.620Z,22.77
2018-02-09T13:42:45.582Z,22.80
2018-02-09T13:43:45.572Z,22.85
2018-02-09T13:44:45.503Z,22.81
2018-02-09T13:45:45.670Z,22.83
2018-02-09T13:46:45.424Z,22.74
2018-02-09T13:47:45.384Z,22.85
2018-02-09T13:48:45.416Z,22.83
2018-02-09T13:49:45.305Z,22.78
2018-02-09T13:50:45.285Z,22.77
2018-02-09T13:51:45.255Z,22.80
2018-02-09T13:52:45.397Z,22.73
2018-02-09T13:53:45.147Z,22.80
2018-02-09T13:54:45.107Z,22.81
2018-02-09T13:55:45.151Z,22.76
2018-02-09T13:56:45.023Z,22.81
2018-02-09T13:57:45.189Z,22.73
2018-02-09T13:58:44.947Z,22.71
2018-02-09T13:59:44.909Z,22.70
2018-02-09T14:00:44.909Z,22.74
2018-02-09T14:01:44.828Z,22.77
2018-02-09T14:02:44.808Z,22.78
2018-02-09T14:03:44.748Z,22.74
2018-02-09T14:04:44.898Z,22.76
2018-02-09T14:05:44.670Z,22.74
2018-02-09T14:06:44.630Z,22.73
2018-02-09T14:07:44.720Z,22.81
2018-02-09T14:08:44.553Z,22.76
2018-02-09T14:09:44.710Z,22.68
2018-02-09T14:10:44.472Z,22.67
2018-02-09T14:11:44.429Z,22.62
2018-02-09T14:12:44.449Z,22.71
2018-02-09T14:13:44.352Z,22.53
2018-02-09T14:14:44.502Z,22.62
2018-02-09T14:15:44.273Z,22.55
2018-02-09T14:16:44.235Z,22.53
2018-02-09T14:17:44.253Z,22.58
2018-02-09T14:18:44.154Z,22.48
2018-02-09T14:19:44.300Z,22.52
2018-02-09T14:20:44.077Z,22.51
2018-02-09T14:21:44.036Z,22.51
2018-02-09T14:22:44.084Z,22.52
2018-02-09T14:23:43.956Z,22.46
2018-02-09T14:24:44.102Z,22.53
2018-02-09T14:25:43.880Z,22.48
2018-02-09T14:26:43.836Z,22.46
2018-02-09T14:27:43.836Z,22.43
2018-02-09T14:28:43.757Z,22.41
2018-02-09T14:29:43.905Z,22.44
2018-02-09T14:30:43.679Z,22.43
2018-02-09T14:31:43.683Z,22.48
2018-02-09T14:32:43.660Z,22.43
2018-02-09T14:33:43.557Z,22.33
2018-02-09T14:34:43.712Z,22.48
2018-02-09T14:35:43.475Z,22.40
2018-02-09T14:36:43.438Z,22.43